Rumney, New Hampshire
Current Conditions -  °F | °C
As of 9:15 PM on Monday 20 Oct 2014 (Local Time) from K1P1 Reporting Station
Broken Clouds Broken Clouds  
Wind Chill: 40°   Ceiling: 7500
Heat Index: 40°   Visibility: 10mi
Dew Point: 40°   Wind: 0mph
Humidity: 100%   Direction: NA
Pressure: 29.97"   Gusts: NA
Location:  43.81°N, 71.81°W
Report Text: K1P1 210115Z AUTO 00000KT 10SM BKN075 04/04 A2997 RMK AO2 T00420042
Loading
Personal Weather Stations






























Interactive Weather Map New forecast layout! Learn more

10-Day Weather Forecast

Advertisements
Track Severe Weather on mobile